IBE07HH LEMD-EGLL
Flight info
| Callsign | IBE07HH |
|---|---|
| Flight time | 1h 45m |
| Altitude | 34000 |
| Route | SIE N858 DGO N867 NENEM DCT DIDIG UP87 ROXOG |
| Aircraft | A346/H-SDE2E3FGHIJ3J4J5M1RWXY/LB1D1 |
Departure
| Time | 2026-05-07 15:04 |
|---|---|
| Airport | Adolfo Suárez Madrid–Barajas Airport (LEMD) |
Arrival
| Time | 2026-05-07 16:49 |
|---|---|
| Airport | London Heathrow Airport (EGLL) |
| Time | Latitude | Longitude | Altitude | Speed | Heading |
|---|---|---|---|---|---|
| 2026-05-07 14:02 | 40.49359 | -3.56883 | 1990 ft | 0 kts | 89° |
| 2026-05-07 14:54 | 40.49359 | -3.56887 | 1989 ft | 0 kts | 89° |
| 2026-05-07 14:54 | 40.49358 | -3.56920 | 1991 ft | 1 kts | 89° |
| 2026-05-07 14:54 | 40.49358 | -3.56954 | 1995 ft | 4 kts | 89° |
| 2026-05-07 14:55 | 40.49357 | -3.56989 | 1994 ft | 6 kts | 89° |
| 2026-05-07 14:55 | 40.49357 | -3.57011 | 1994 ft | 0 kts | 89° |
| 2026-05-07 14:55 | 40.49357 | -3.57016 | 1993 ft | 0 kts | 99° |
| 2026-05-07 14:55 | 40.49357 | -3.57018 | 1993 ft | 0 kts | 101° |
| 2026-05-07 14:58 | 40.49356 | -3.57015 | 1993 ft | 1 kts | 108° |
| 2026-05-07 14:58 | 40.49344 | -3.57006 | 1995 ft | 4 kts | 171° |
| 2026-05-07 14:59 | 40.49309 | -3.57022 | 1996 ft | 6 kts | 222° |
| 2026-05-07 14:59 | 40.49292 | -3.57078 | 1998 ft | 5 kts | 268° |
| 2026-05-07 14:59 | 40.49291 | -3.57112 | 1998 ft | 5 kts | 268° |
| 2026-05-07 14:59 | 40.49290 | -3.57160 | 1999 ft | 5 kts | 268° |
| 2026-05-07 15:00 | 40.49277 | -3.57221 | 2002 ft | 12 kts | 228° |
| 2026-05-07 15:00 | 40.49243 | -3.57234 | 2001 ft | 4 kts | 180° |
| 2026-05-07 15:00 | 40.49171 | -3.57236 | 2000 ft | 12 kts | 180° |
| 2026-05-07 15:00 | 40.49080 | -3.57236 | 2000 ft | 14 kts | 180° |
| 2026-05-07 15:01 | 40.48976 | -3.57235 | 2002 ft | 16 kts | 179° |
| 2026-05-07 15:01 | 40.48854 | -3.57234 | 2004 ft | 18 kts | 179° |
| 2026-05-07 15:01 | 40.48735 | -3.57236 | 2003 ft | 14 kts | 195° |
| 2026-05-07 15:01 | 40.48661 | -3.57319 | 2003 ft | 15 kts | 231° |
| 2026-05-07 15:02 | 40.48595 | -3.57429 | 2005 ft | 16 kts | 233° |
| 2026-05-07 15:02 | 40.48519 | -3.57535 | 2009 ft | 16 kts | 207° |
| 2026-05-07 15:02 | 40.48424 | -3.57531 | 2006 ft | 3 kts | 144° |
| 2026-05-07 15:02 | 40.48414 | -3.57522 | 2008 ft | 9 kts | 144° |
| 2026-05-07 15:03 | 40.48179 | -3.57283 | 2001 ft | 77 kts | 142° |
| 2026-05-07 15:03 | 40.47581 | -3.56674 | 1992 ft | 138 kts | 142° |
| 2026-05-07 15:03 | 40.46677 | -3.55756 | 1967 ft | 188 kts | 142° |
| 2026-05-07 15:03 | 40.45573 | -3.54640 | 2263 ft | 207 kts | 142° |
| 2026-05-07 15:04 | 40.44456 | -3.53474 | 3119 ft | 200 kts | 133° |
| 2026-05-07 15:04 | 40.43617 | -3.52114 | 4097 ft | 188 kts | 131° |
| 2026-05-07 15:04 | 40.42757 | -3.50812 | 4774 ft | 185 kts | 134° |
| 2026-05-07 15:04 | 40.41858 | -3.49562 | 5225 ft | 194 kts | 136° |
| 2026-05-07 15:05 | 40.40860 | -3.48256 | 5558 ft | 211 kts | 137° |
| 2026-05-07 15:05 | 40.39757 | -3.46857 | 5981 ft | 228 kts | 138° |
| 2026-05-07 15:05 | 40.38584 | -3.45387 | 6610 ft | 236 kts | 138° |
| 2026-05-07 15:05 | 40.37386 | -3.43888 | 7365 ft | 239 kts | 139° |
| 2026-05-07 15:06 | 40.36172 | -3.42384 | 8140 ft | 242 kts | 142° |
| 2026-05-07 15:06 | 40.34703 | -3.41316 | 8681 ft | 252 kts | 169° |
| 2026-05-07 15:06 | 40.32857 | -3.41340 | 9140 ft | 267 kts | 198° |
| 2026-05-07 15:06 | 40.31235 | -3.42538 | 9761 ft | 276 kts | 219° |
| 2026-05-07 15:07 | 40.29738 | -3.44142 | 10573 ft | 281 kts | 219° |
| 2026-05-07 15:07 | 40.28167 | -3.45797 | 11075 ft | 298 kts | 218° |
| 2026-05-07 15:07 | 40.26620 | -3.47715 | 11472 ft | 318 kts | 234° |
| 2026-05-07 15:07 | 40.25807 | -3.50498 | 11840 ft | 341 kts | 262° |
| 2026-05-07 15:08 | 40.26079 | -3.53657 | 12209 ft | 364 kts | 288° |
| 2026-05-07 15:08 | 40.27462 | -3.56527 | 12648 ft | 385 kts | 313° |
| 2026-05-07 15:08 | 40.29737 | -3.58428 | 13373 ft | 396 kts | 339° |
| 2026-05-07 15:08 | 40.32470 | -3.58986 | 14217 ft | 401 kts | 0° |
| 2026-05-07 15:09 | 40.35267 | -3.58730 | 15076 ft | 404 kts | 4° |
| 2026-05-07 15:09 | 40.38078 | -3.58440 | 15934 ft | 407 kts | 2° |
| 2026-05-07 15:09 | 40.40913 | -3.58262 | 16779 ft | 409 kts | 1° |
| 2026-05-07 15:09 | 40.43766 | -3.58190 | 17584 ft | 413 kts | 359° |
| 2026-05-07 15:10 | 40.46655 | -3.58191 | 18321 ft | 417 kts | 358° |
| 2026-05-07 15:10 | 40.49573 | -3.58239 | 18944 ft | 422 kts | 358° |
| 2026-05-07 15:10 | 40.51336 | -3.58281 | 19344 ft | 424 kts | 358° |
| 2026-05-07 15:10 | 40.54310 | -3.58365 | 20018 ft | 427 kts | 358° |
| 2026-05-07 15:11 | 40.57311 | -3.58459 | 20639 ft | 432 kts | 358° |
| 2026-05-07 15:11 | 40.60342 | -3.58559 | 21247 ft | 437 kts | 358° |
| 2026-05-07 15:11 | 40.63392 | -3.58661 | 21871 ft | 441 kts | 358° |
| 2026-05-07 15:11 | 40.66470 | -3.58766 | 22471 ft | 445 kts | 358° |
| 2026-05-07 15:12 | 40.69583 | -3.58873 | 23088 ft | 449 kts | 358° |
| 2026-05-07 15:12 | 40.72722 | -3.58981 | 23684 ft | 453 kts | 358° |
| 2026-05-07 15:12 | 40.75885 | -3.59088 | 24205 ft | 457 kts | 358° |
| 2026-05-07 15:12 | 40.79101 | -3.59198 | 24749 ft | 460 kts | 358° |
| 2026-05-07 15:13 | 40.82318 | -3.59308 | 25290 ft | 463 kts | 357° |
| 2026-05-07 15:13 | 40.85558 | -3.59420 | 25828 ft | 467 kts | 357° |
| 2026-05-07 15:13 | 40.88814 | -3.59532 | 26346 ft | 470 kts | 357° |
| 2026-05-07 15:13 | 40.92101 | -3.59646 | 26870 ft | 473 kts | 357° |
| 2026-05-07 15:14 | 40.95405 | -3.59762 | 27371 ft | 477 kts | 357° |
| 2026-05-07 15:14 | 40.98728 | -3.59878 | 27864 ft | 480 kts | 357° |
| 2026-05-07 15:14 | 41.02072 | -3.59995 | 28487 ft | 480 kts | 357° |
| 2026-05-07 15:14 | 41.05413 | -3.60112 | 29256 ft | 477 kts | 357° |
| 2026-05-07 15:15 | 41.08694 | -3.60227 | 30031 ft | 475 kts | 357° |
| 2026-05-07 15:15 | 41.12004 | -3.60341 | 30649 ft | 473 kts | 357° |
| 2026-05-07 15:15 | 41.15282 | -3.60452 | 31286 ft | 471 kts | 357° |
| 2026-05-07 15:15 | 41.18562 | -3.60104 | 31859 ft | 473 kts | 12° |
| 2026-05-07 15:16 | 41.21630 | -3.58513 | 32426 ft | 475 kts | 28° |
| 2026-05-07 15:16 | 41.24280 | -3.55878 | 32936 ft | 478 kts | 41° |
| 2026-05-07 15:16 | 41.26800 | -3.52979 | 33363 ft | 478 kts | 33° |
| 2026-05-07 15:16 | 41.29688 | -3.50738 | 33724 ft | 478 kts | 21° |
| 2026-05-07 15:17 | 41.32820 | -3.49294 | 33933 ft | 477 kts | 12° |
| 2026-05-07 15:17 | 41.36037 | -3.48179 | 33930 ft | 478 kts | 12° |
| 2026-05-07 15:17 | 41.42407 | -3.45467 | 33923 ft | 481 kts | 18° |
| 2026-05-07 15:18 | 41.48638 | -3.42128 | 33924 ft | 482 kts | 20° |
| 2026-05-07 15:18 | 41.54839 | -3.38676 | 33918 ft | 483 kts | 20° |
| 2026-05-07 15:19 | 41.61009 | -3.35267 | 33908 ft | 483 kts | 20° |
| 2026-05-07 15:19 | 41.67216 | -3.31836 | 33916 ft | 483 kts | 20° |
| 2026-05-07 15:20 | 41.73473 | -3.28371 | 33910 ft | 483 kts | 20° |
| 2026-05-07 15:20 | 41.79688 | -3.24924 | 33914 ft | 484 kts | 21° |
| 2026-05-07 15:21 | 41.85915 | -3.21462 | 33914 ft | 484 kts | 21° |
| 2026-05-07 15:21 | 41.92142 | -3.17993 | 33914 ft | 485 kts | 21° |
| 2026-05-07 15:22 | 41.98394 | -3.14503 | 33919 ft | 485 kts | 21° |
| 2026-05-07 15:22 | 42.04638 | -3.11010 | 33917 ft | 486 kts | 21° |
| 2026-05-07 15:23 | 42.10856 | -3.07523 | 33918 ft | 487 kts | 21° |
| 2026-05-07 15:23 | 42.17116 | -3.04004 | 33912 ft | 487 kts | 21° |
| 2026-05-07 15:24 | 42.23403 | -3.00465 | 33917 ft | 488 kts | 21° |
| 2026-05-07 15:24 | 42.29681 | -2.96922 | 33907 ft | 488 kts | 21° |
| 2026-05-07 15:25 | 42.35960 | -2.93374 | 33906 ft | 489 kts | 21° |
| 2026-05-07 15:25 | 42.42429 | -2.90603 | 33905 ft | 487 kts | 11° |
| 2026-05-07 15:26 | 42.49090 | -2.89361 | 33902 ft | 485 kts | 1° |
| 2026-05-07 15:26 | 42.55822 | -2.89664 | 33904 ft | 484 kts | 352° |
| 2026-05-07 15:27 | 42.62493 | -2.90773 | 33914 ft | 484 kts | 350° |
| 2026-05-07 15:27 | 42.69170 | -2.91927 | 33914 ft | 484 kts | 351° |
| 2026-05-07 15:28 | 42.75860 | -2.93058 | 33911 ft | 484 kts | 351° |
| 2026-05-07 15:28 | 42.82565 | -2.94178 | 33919 ft | 484 kts | 351° |
| 2026-05-07 15:29 | 42.89262 | -2.95295 | 33914 ft | 484 kts | 351° |
| 2026-05-07 15:29 | 42.95962 | -2.96415 | 33920 ft | 484 kts | 351° |
| 2026-05-07 15:30 | 43.02657 | -2.97535 | 33907 ft | 484 kts | 350° |
| 2026-05-07 15:30 | 43.09339 | -2.98657 | 33899 ft | 484 kts | 350° |
| 2026-05-07 15:31 | 43.16027 | -2.99781 | 33888 ft | 484 kts | 350° |
| 2026-05-07 15:31 | 43.22665 | -3.00900 | 33901 ft | 483 kts | 350° |
| 2026-05-07 15:32 | 43.29353 | -3.02029 | 33887 ft | 484 kts | 350° |
| 2026-05-07 15:32 | 43.36047 | -3.03163 | 33888 ft | 484 kts | 350° |
| 2026-05-07 15:33 | 43.42760 | -3.04301 | 33889 ft | 485 kts | 350° |
| 2026-05-07 15:33 | 43.49457 | -3.05440 | 33895 ft | 485 kts | 350° |
| 2026-05-07 15:34 | 43.56153 | -3.06581 | 33893 ft | 485 kts | 350° |
| 2026-05-07 15:34 | 43.62860 | -3.07726 | 33900 ft | 485 kts | 350° |
| 2026-05-07 15:35 | 43.69567 | -3.08874 | 33902 ft | 485 kts | 350° |
| 2026-05-07 15:35 | 43.76298 | -3.10029 | 33903 ft | 485 kts | 350° |
| 2026-05-07 15:36 | 43.82948 | -3.11174 | 33912 ft | 485 kts | 350° |
| 2026-05-07 15:36 | 43.89648 | -3.12330 | 33918 ft | 484 kts | 350° |
| 2026-05-07 15:37 | 43.96360 | -3.13491 | 33922 ft | 484 kts | 350° |
| 2026-05-07 15:37 | 44.03099 | -3.14185 | 33924 ft | 486 kts | 356° |
| 2026-05-07 15:38 | 44.09867 | -3.13812 | 33926 ft | 488 kts | 4° |
| 2026-05-07 15:38 | 44.16599 | -3.12474 | 33927 ft | 489 kts | 7° |
| 2026-05-07 15:39 | 44.23310 | -3.10905 | 33933 ft | 489 kts | 7° |
| 2026-05-07 15:39 | 44.30049 | -3.09335 | 33935 ft | 489 kts | 7° |
| 2026-05-07 15:40 | 44.36771 | -3.07783 | 33938 ft | 490 kts | 7° |
| 2026-05-07 15:40 | 44.43481 | -3.06236 | 33945 ft | 490 kts | 7° |
| 2026-05-07 15:41 | 44.50258 | -3.04673 | 33942 ft | 491 kts | 7° |
| 2026-05-07 15:41 | 44.57015 | -3.03111 | 33951 ft | 491 kts | 7° |
| 2026-05-07 15:42 | 44.63720 | -3.01180 | 33951 ft | 493 kts | 14° |
| 2026-05-07 15:42 | 44.70320 | -2.98446 | 33954 ft | 493 kts | 15° |
| 2026-05-07 15:43 | 44.76886 | -2.95791 | 33955 ft | 494 kts | 13° |
| 2026-05-07 15:43 | 44.83570 | -2.93488 | 33957 ft | 494 kts | 12° |
| 2026-05-07 15:44 | 44.90245 | -2.91210 | 33963 ft | 494 kts | 12° |
| 2026-05-07 15:44 | 44.95793 | -2.89291 | 33961 ft | 494 kts | 12° |
| 2026-05-07 15:45 | 45.02463 | -2.86964 | 33964 ft | 494 kts | 12° |
| 2026-05-07 15:45 | 45.09129 | -2.84628 | 33969 ft | 494 kts | 13° |
| 2026-05-07 15:46 | 45.19148 | -2.81104 | 33964 ft | 494 kts | 13° |
| 2026-05-07 15:47 | 45.25812 | -2.78753 | 33970 ft | 493 kts | 13° |
| 2026-05-07 15:47 | 45.32478 | -2.76396 | 33970 ft | 493 kts | 13° |
| 2026-05-07 15:48 | 45.39138 | -2.74035 | 33971 ft | 493 kts | 13° |
| 2026-05-07 15:48 | 45.45806 | -2.71666 | 33981 ft | 493 kts | 13° |
| 2026-05-07 15:49 | 45.52419 | -2.69310 | 33977 ft | 493 kts | 13° |
| 2026-05-07 15:49 | 45.59077 | -2.66933 | 33979 ft | 493 kts | 13° |
| 2026-05-07 15:50 | 45.65748 | -2.64545 | 33981 ft | 493 kts | 13° |
| 2026-05-07 15:50 | 45.72413 | -2.62154 | 33983 ft | 493 kts | 13° |
| 2026-05-07 15:51 | 45.79070 | -2.59760 | 33980 ft | 493 kts | 13° |
| 2026-05-07 15:51 | 45.85729 | -2.57358 | 33981 ft | 493 kts | 13° |
| 2026-05-07 15:52 | 45.92388 | -2.54950 | 33984 ft | 493 kts | 13° |
| 2026-05-07 15:52 | 45.99040 | -2.52540 | 33983 ft | 493 kts | 13° |
| 2026-05-07 15:53 | 46.05692 | -2.50123 | 33984 ft | 493 kts | 13° |
| 2026-05-07 15:53 | 46.12324 | -2.47708 | 33986 ft | 492 kts | 13° |
| 2026-05-07 15:54 | 46.18972 | -2.45281 | 33988 ft | 492 kts | 13° |
| 2026-05-07 15:54 | 46.25605 | -2.42853 | 33990 ft | 492 kts | 13° |
| 2026-05-07 15:55 | 46.32242 | -2.40418 | 33987 ft | 491 kts | 13° |
| 2026-05-07 15:55 | 46.38870 | -2.37980 | 33986 ft | 491 kts | 13° |
| 2026-05-07 15:56 | 46.45496 | -2.35537 | 33990 ft | 491 kts | 13° |
| 2026-05-07 15:56 | 46.52072 | -2.33106 | 33989 ft | 491 kts | 13° |
| 2026-05-07 15:57 | 46.58683 | -2.30656 | 33991 ft | 490 kts | 13° |
| 2026-05-07 15:57 | 46.65286 | -2.28203 | 33991 ft | 490 kts | 13° |
| 2026-05-07 15:58 | 46.71885 | -2.25745 | 33989 ft | 489 kts | 13° |
| 2026-05-07 15:58 | 46.78484 | -2.23281 | 33995 ft | 489 kts | 13° |
| 2026-05-07 15:59 | 46.85066 | -2.20818 | 33994 ft | 488 kts | 13° |
| 2026-05-07 15:59 | 46.91647 | -2.18349 | 33990 ft | 488 kts | 13° |
| 2026-05-07 16:00 | 46.98220 | -2.15877 | 33991 ft | 487 kts | 13° |
| 2026-05-07 16:00 | 47.04784 | -2.13402 | 33987 ft | 487 kts | 13° |
| 2026-05-07 16:01 | 47.11304 | -2.10939 | 33982 ft | 486 kts | 13° |
| 2026-05-07 16:01 | 47.17899 | -2.08445 | 33985 ft | 486 kts | 13° |
| 2026-05-07 16:02 | 47.24402 | -2.05980 | 33980 ft | 485 kts | 13° |
| 2026-05-07 16:02 | 47.30945 | -2.03494 | 33979 ft | 485 kts | 13° |
| 2026-05-07 16:03 | 47.37466 | -2.01010 | 33980 ft | 484 kts | 13° |
| 2026-05-07 16:03 | 47.44075 | -1.99228 | 33978 ft | 483 kts | 5° |
| 2026-05-07 16:04 | 47.50762 | -1.98202 | 33984 ft | 482 kts | 5° |
| 2026-05-07 16:04 | 47.57437 | -1.97156 | 33985 ft | 482 kts | 5° |
| 2026-05-07 16:05 | 47.64088 | -1.96062 | 33988 ft | 482 kts | 5° |
| 2026-05-07 16:05 | 47.70749 | -1.94946 | 33986 ft | 481 kts | 5° |
| 2026-05-07 16:06 | 47.77400 | -1.93824 | 33994 ft | 481 kts | 5° |
| 2026-05-07 16:06 | 47.84061 | -1.92699 | 33995 ft | 480 kts | 5° |
| 2026-05-07 16:07 | 47.90691 | -1.91576 | 34002 ft | 479 kts | 5° |
| 2026-05-07 16:07 | 47.97348 | -1.90447 | 34004 ft | 479 kts | 5° |
| 2026-05-07 16:08 | 48.03924 | -1.89328 | 33995 ft | 478 kts | 5° |
| 2026-05-07 16:08 | 48.10557 | -1.88211 | 34014 ft | 478 kts | 5° |
| 2026-05-07 16:09 | 48.17187 | -1.87151 | 34000 ft | 478 kts | 5° |
| 2026-05-07 16:09 | 48.23815 | -1.86095 | 33997 ft | 477 kts | 5° |
| 2026-05-07 16:10 | 48.30423 | -1.85037 | 33999 ft | 477 kts | 5° |
| 2026-05-07 16:10 | 48.37033 | -1.83972 | 34001 ft | 477 kts | 5° |
| 2026-05-07 16:11 | 48.43635 | -1.82908 | 34004 ft | 477 kts | 5° |
| 2026-05-07 16:11 | 48.50192 | -1.81847 | 34005 ft | 477 kts | 5° |
| 2026-05-07 16:12 | 48.56786 | -1.80778 | 34005 ft | 476 kts | 5° |
| 2026-05-07 16:12 | 48.63394 | -1.79703 | 34007 ft | 476 kts | 5° |
| 2026-05-07 16:13 | 48.69984 | -1.78628 | 34005 ft | 475 kts | 5° |
| 2026-05-07 16:13 | 48.76562 | -1.77552 | 34011 ft | 475 kts | 5° |
| 2026-05-07 16:14 | 48.83100 | -1.76480 | 34012 ft | 474 kts | 5° |
| 2026-05-07 16:14 | 48.89669 | -1.75417 | 34019 ft | 474 kts | 4° |
| 2026-05-07 16:15 | 48.96254 | -1.74929 | 34018 ft | 473 kts | 0° |
| 2026-05-07 16:15 | 49.02870 | -1.74694 | 34016 ft | 473 kts | 0° |
| 2026-05-07 16:16 | 49.09458 | -1.74461 | 34016 ft | 473 kts | 0° |
| 2026-05-07 16:16 | 49.16011 | -1.74217 | 34019 ft | 473 kts | 0° |
| 2026-05-07 16:17 | 49.22594 | -1.73966 | 34013 ft | 473 kts | 0° |
| 2026-05-07 16:17 | 49.29181 | -1.73714 | 34017 ft | 473 kts | 0° |
| 2026-05-07 16:18 | 49.35754 | -1.73461 | 34014 ft | 472 kts | 0° |
| 2026-05-07 16:18 | 49.42322 | -1.73208 | 34022 ft | 472 kts | 0° |
| 2026-05-07 16:19 | 49.48491 | -1.72970 | 34028 ft | 472 kts | 360° |
| 2026-05-07 16:19 | 49.55088 | -1.72717 | 34032 ft | 471 kts | 360° |
| 2026-05-07 16:19 | 49.58375 | -1.72588 | 33884 ft | 472 kts | 0° |
| 2026-05-07 16:20 | 49.61645 | -1.72424 | 33597 ft | 470 kts | 1° |
| 2026-05-07 16:20 | 49.64900 | -1.72160 | 33315 ft | 467 kts | 2° |
| 2026-05-07 16:20 | 49.68135 | -1.71867 | 33047 ft | 464 kts | 2° |
| 2026-05-07 16:20 | 49.71312 | -1.71579 | 32784 ft | 463 kts | 2° |
| 2026-05-07 16:21 | 49.74552 | -1.71293 | 32482 ft | 463 kts | 2° |
| 2026-05-07 16:21 | 49.77773 | -1.71015 | 32100 ft | 463 kts | 1° |
| 2026-05-07 16:21 | 49.80998 | -1.70740 | 31629 ft | 464 kts | 1° |
| 2026-05-07 16:21 | 49.84216 | -1.70468 | 31063 ft | 464 kts | 1° |
| 2026-05-07 16:22 | 49.87444 | -1.70196 | 30468 ft | 464 kts | 2° |
| 2026-05-07 16:22 | 49.90669 | -1.69924 | 29823 ft | 465 kts | 2° |
| 2026-05-07 16:22 | 49.93898 | -1.69649 | 29123 ft | 465 kts | 2° |
| 2026-05-07 16:22 | 49.97128 | -1.69284 | 28459 ft | 465 kts | 5° |
| 2026-05-07 16:23 | 50.00343 | -1.68552 | 27801 ft | 465 kts | 9° |
| 2026-05-07 16:23 | 50.03491 | -1.67435 | 27203 ft | 464 kts | 14° |
| 2026-05-07 16:23 | 50.04236 | -1.67110 | 27106 ft | 465 kts | 15° |
| 2026-05-07 16:23 | 50.07336 | -1.65656 | 26715 ft | 465 kts | 16° |
| 2026-05-07 16:24 | 50.10416 | -1.64147 | 26297 ft | 462 kts | 17° |
| 2026-05-07 16:24 | 50.13472 | -1.62639 | 25871 ft | 458 kts | 17° |
| 2026-05-07 16:24 | 50.16503 | -1.61149 | 25444 ft | 455 kts | 16° |
| 2026-05-07 16:24 | 50.19512 | -1.59678 | 25007 ft | 451 kts | 16° |
| 2026-05-07 16:25 | 50.22496 | -1.58223 | 24580 ft | 448 kts | 16° |
| 2026-05-07 16:25 | 50.25458 | -1.56779 | 24145 ft | 444 kts | 16° |
| 2026-05-07 16:25 | 50.28406 | -1.55340 | 23722 ft | 441 kts | 16° |
| 2026-05-07 16:25 | 50.31328 | -1.53911 | 23233 ft | 437 kts | 16° |
| 2026-05-07 16:26 | 50.34217 | -1.52497 | 22766 ft | 433 kts | 16° |
| 2026-05-07 16:26 | 50.37071 | -1.51099 | 22349 ft | 428 kts | 16° |
| 2026-05-07 16:26 | 50.39878 | -1.49722 | 21923 ft | 424 kts | 16° |
| 2026-05-07 16:26 | 50.41768 | -1.48794 | 21636 ft | 421 kts | 16° |
| 2026-05-07 16:27 | 50.45453 | -1.46983 | 21091 ft | 416 kts | 16° |
| 2026-05-07 16:27 | 50.48207 | -1.45626 | 20677 ft | 412 kts | 16° |
| 2026-05-07 16:27 | 50.50948 | -1.44252 | 20264 ft | 410 kts | 18° |
| 2026-05-07 16:27 | 50.53692 | -1.42608 | 20049 ft | 422 kts | 21° |
| 2026-05-07 16:28 | 50.56384 | -1.40644 | 20047 ft | 426 kts | 26° |
| 2026-05-07 16:28 | 50.59034 | -1.38432 | 19878 ft | 421 kts | 27° |
| 2026-05-07 16:28 | 50.61612 | -1.36209 | 19109 ft | 424 kts | 28° |
| 2026-05-07 16:28 | 50.64237 | -1.33930 | 18408 ft | 426 kts | 28° |
| 2026-05-07 16:29 | 50.66827 | -1.31685 | 17836 ft | 422 kts | 28° |
| 2026-05-07 16:29 | 50.69391 | -1.29470 | 17218 ft | 419 kts | 27° |
| 2026-05-07 16:29 | 50.71982 | -1.27238 | 16714 ft | 414 kts | 28° |
| 2026-05-07 16:29 | 50.74508 | -1.25052 | 16269 ft | 408 kts | 28° |
| 2026-05-07 16:30 | 50.76138 | -1.23599 | 15985 ft | 404 kts | 30° |
| 2026-05-07 16:30 | 50.78523 | -1.21243 | 15550 ft | 400 kts | 32° |
| 2026-05-07 16:30 | 50.80854 | -1.18844 | 15142 ft | 395 kts | 32° |
| 2026-05-07 16:30 | 50.83155 | -1.16459 | 15036 ft | 396 kts | 32° |
| 2026-05-07 16:31 | 50.85449 | -1.14081 | 14733 ft | 391 kts | 32° |
| 2026-05-07 16:31 | 50.87723 | -1.11726 | 14111 ft | 391 kts | 32° |
| 2026-05-07 16:31 | 50.90008 | -1.09361 | 13408 ft | 393 kts | 32° |
| 2026-05-07 16:31 | 50.92284 | -1.07002 | 13076 ft | 384 kts | 32° |
| 2026-05-07 16:32 | 50.94483 | -1.04718 | 13042 ft | 367 kts | 32° |
| 2026-05-07 16:32 | 50.96567 | -1.02553 | 13043 ft | 350 kts | 32° |
| 2026-05-07 16:32 | 50.98597 | -1.00444 | 13042 ft | 344 kts | 33° |
| 2026-05-07 16:32 | 51.00514 | -0.98173 | 13064 ft | 345 kts | 40° |
| 2026-05-07 16:33 | 51.02233 | -0.95510 | 13050 ft | 345 kts | 46° |
| 2026-05-07 16:33 | 51.03843 | -0.92676 | 13051 ft | 345 kts | 48° |
| 2026-05-07 16:33 | 51.05412 | -0.89846 | 13049 ft | 345 kts | 48° |
| 2026-05-07 16:33 | 51.06997 | -0.86984 | 13050 ft | 345 kts | 48° |
| 2026-05-07 16:34 | 51.08596 | -0.84111 | 13047 ft | 341 kts | 48° |
| 2026-05-07 16:34 | 51.10138 | -0.81348 | 13046 ft | 326 kts | 48° |
| 2026-05-07 16:34 | 51.11626 | -0.78685 | 13047 ft | 321 kts | 47° |
| 2026-05-07 16:34 | 51.13115 | -0.76025 | 12935 ft | 321 kts | 48° |
| 2026-05-07 16:35 | 51.14620 | -0.73327 | 12534 ft | 320 kts | 48° |
| 2026-05-07 16:35 | 51.16093 | -0.70686 | 12134 ft | 318 kts | 48° |
| 2026-05-07 16:35 | 51.17560 | -0.68054 | 11746 ft | 316 kts | 48° |
| 2026-05-07 16:35 | 51.19015 | -0.65439 | 11363 ft | 314 kts | 48° |
| 2026-05-07 16:36 | 51.20393 | -0.62958 | 11073 ft | 309 kts | 47° |
| 2026-05-07 16:36 | 51.21686 | -0.60633 | 10991 ft | 299 kts | 48° |
| 2026-05-07 16:36 | 51.23079 | -0.58120 | 10702 ft | 297 kts | 48° |
| 2026-05-07 16:36 | 51.24437 | -0.55667 | 10420 ft | 294 kts | 48° |
| 2026-05-07 16:37 | 51.25786 | -0.53228 | 10110 ft | 293 kts | 48° |
| 2026-05-07 16:37 | 51.27138 | -0.50789 | 9791 ft | 292 kts | 46° |
| 2026-05-07 16:37 | 51.28762 | -0.48874 | 9352 ft | 288 kts | 17° |
| 2026-05-07 16:37 | 51.30716 | -0.48528 | 8948 ft | 282 kts | 351° |
| 2026-05-07 16:38 | 51.32534 | -0.49623 | 8553 ft | 279 kts | 323° |
| 2026-05-07 16:38 | 51.33765 | -0.51761 | 8186 ft | 276 kts | 298° |
| 2026-05-07 16:38 | 51.34277 | -0.54694 | 8068 ft | 272 kts | 276° |
| 2026-05-07 16:38 | 51.34375 | -0.57729 | 8062 ft | 274 kts | 271° |
| 2026-05-07 16:39 | 51.34403 | -0.60782 | 8056 ft | 274 kts | 270° |
| 2026-05-07 16:39 | 51.34417 | -0.63828 | 8024 ft | 274 kts | 271° |
| 2026-05-07 16:39 | 51.34424 | -0.66898 | 7738 ft | 273 kts | 271° |
| 2026-05-07 16:39 | 51.34425 | -0.69931 | 7455 ft | 270 kts | 271° |
| 2026-05-07 16:40 | 51.34454 | -0.72937 | 7183 ft | 269 kts | 277° |
| 2026-05-07 16:40 | 51.35051 | -0.75749 | 6808 ft | 269 kts | 300° |
| 2026-05-07 16:40 | 51.36061 | -0.78302 | 6412 ft | 270 kts | 305° |
| 2026-05-07 16:40 | 51.37136 | -0.80794 | 5984 ft | 271 kts | 306° |
| 2026-05-07 16:41 | 51.38221 | -0.83274 | 5567 ft | 273 kts | 306° |
| 2026-05-07 16:41 | 51.39310 | -0.85764 | 5233 ft | 271 kts | 306° |
| 2026-05-07 16:41 | 51.40377 | -0.88212 | 4929 ft | 263 kts | 306° |
| 2026-05-07 16:41 | 51.41420 | -0.90519 | 4673 ft | 247 kts | 314° |
| 2026-05-07 16:42 | 51.42794 | -0.91965 | 4404 ft | 232 kts | 346° |
| 2026-05-07 16:42 | 51.44357 | -0.92295 | 4247 ft | 223 kts | 358° |
| 2026-05-07 16:42 | 51.45845 | -0.91944 | 3979 ft | 219 kts | 27° |
| 2026-05-07 16:42 | 51.46951 | -0.90438 | 3950 ft | 200 kts | 51° |
| 2026-05-07 16:43 | 51.47489 | -0.88477 | 3965 ft | 189 kts | 79° |
| 2026-05-07 16:43 | 51.47612 | -0.86369 | 3972 ft | 188 kts | 85° |
| 2026-05-07 16:43 | 51.47671 | -0.84261 | 4014 ft | 188 kts | 86° |
| 2026-05-07 16:43 | 51.47700 | -0.82157 | 4047 ft | 189 kts | 87° |
| 2026-05-07 16:44 | 51.47713 | -0.80040 | 4001 ft | 188 kts | 88° |
| 2026-05-07 16:44 | 51.47716 | -0.77937 | 3793 ft | 188 kts | 88° |
| 2026-05-07 16:44 | 51.47715 | -0.75845 | 3540 ft | 186 kts | 88° |
| 2026-05-07 16:44 | 51.47712 | -0.73804 | 3291 ft | 186 kts | 88° |
| 2026-05-07 16:45 | 51.47710 | -0.71718 | 3043 ft | 185 kts | 88° |
| 2026-05-07 16:45 | 51.47709 | -0.69623 | 2776 ft | 183 kts | 87° |
| 2026-05-07 16:45 | 51.47709 | -0.67629 | 2527 ft | 174 kts | 87° |
| 2026-05-07 16:45 | 51.47709 | -0.65742 | 2275 ft | 164 kts | 88° |
| 2026-05-07 16:46 | 51.47711 | -0.63937 | 2064 ft | 160 kts | 87° |
| 2026-05-07 16:46 | 51.47714 | -0.62142 | 1864 ft | 161 kts | 87° |
| 2026-05-07 16:46 | 51.47719 | -0.60340 | 1660 ft | 161 kts | 87° |
| 2026-05-07 16:46 | 51.47721 | -0.58543 | 1423 ft | 160 kts | 86° |
| 2026-05-07 16:47 | 51.47733 | -0.54799 | 942 ft | 149 kts | 88° |
| 2026-05-07 16:47 | 51.47738 | -0.53562 | 761 ft | 145 kts | 91° |
| 2026-05-07 16:47 | 51.47744 | -0.51942 | 522 ft | 143 kts | 92° |
| 2026-05-07 16:48 | 51.47750 | -0.50325 | 369 ft | 143 kts | 92° |
| 2026-05-07 16:48 | 51.47754 | -0.48709 | 163 ft | 140 kts | 93° |
| 2026-05-07 16:48 | 51.47753 | -0.47281 | 93 ft | 101 kts | 90° |
| 2026-05-07 16:48 | 51.47756 | -0.46457 | 103 ft | 54 kts | 90° |
| 2026-05-07 16:49 | 51.47757 | -0.45837 | 94 ft | 46 kts | 89° |
| 2026-05-07 16:49 | 51.47741 | -0.45519 | 93 ft | 19 kts | 132° |
| 2026-05-07 16:49 | 51.47671 | -0.45469 | 94 ft | 3 kts | 179° |
| 2026-05-07 16:49 | 51.47667 | -0.45469 | 93 ft | 0 kts | 179° |
| 2026-05-07 16:50 | 51.47665 | -0.45469 | 93 ft | 1 kts | 179° |
| 2026-05-07 16:50 | 51.47645 | -0.45468 | 93 ft | 4 kts | 179° |
| 2026-05-07 16:50 | 51.47607 | -0.45468 | 94 ft | 7 kts | 179° |
| 2026-05-07 16:50 | 51.47555 | -0.45468 | 95 ft | 8 kts | 182° |
| 2026-05-07 16:51 | 51.47508 | -0.45522 | 100 ft | 8 kts | 252° |
| 2026-05-07 16:51 | 51.47507 | -0.45649 | 99 ft | 13 kts | 271° |
| 2026-05-07 16:51 | 51.47517 | -0.45826 | 94 ft | 18 kts | 272° |
| 2026-05-07 16:51 | 51.47518 | -0.46037 | 97 ft | 20 kts | 269° |
| 2026-05-07 16:52 | 51.47516 | -0.46286 | 95 ft | 24 kts | 270° |
| 2026-05-07 16:52 | 51.47516 | -0.46540 | 98 ft | 19 kts | 270° |
| 2026-05-07 16:52 | 51.47500 | -0.46763 | 97 ft | 21 kts | 261° |
| 2026-05-07 16:52 | 51.47493 | -0.47011 | 97 ft | 23 kts | 269° |
| 2026-05-07 16:53 | 51.47492 | -0.47285 | 95 ft | 26 kts | 271° |
| 2026-05-07 16:53 | 51.47490 | -0.47588 | 97 ft | 28 kts | 269° |
| 2026-05-07 16:53 | 51.47489 | -0.47913 | 96 ft | 30 kts | 270° |
| 2026-05-07 16:53 | 51.47489 | -0.48198 | 98 ft | 15 kts | 270° |
| 2026-05-07 16:54 | 51.47459 | -0.48350 | 97 ft | 15 kts | 205° |
| 2026-05-07 16:54 | 51.47340 | -0.48361 | 95 ft | 19 kts | 180° |
| 2026-05-07 16:54 | 51.47190 | -0.48357 | 98 ft | 22 kts | 180° |
| 2026-05-07 16:54 | 51.47027 | -0.48355 | 99 ft | 20 kts | 179° |
| 2026-05-07 16:55 | 51.46973 | -0.48354 | 98 ft | 2 kts | 179° |
| 2026-05-07 16:55 | 51.46942 | -0.48354 | 98 ft | 7 kts | 179° |
| 2026-05-07 16:55 | 51.46916 | -0.48332 | 97 ft | 1 kts | 108° |
| 2026-05-07 16:55 | 51.46916 | -0.48291 | 95 ft | 6 kts | 91° |
| 2026-05-07 16:56 | 51.46916 | -0.48265 | 95 ft | 1 kts | 90° |
| 2026-05-07 16:56 | 51.46916 | -0.48245 | 95 ft | 0 kts | 90° |
| 2026-05-07 16:56 | 51.46916 | -0.48236 | 95 ft | 0 kts | 90° |